CheckWX is a tool to help pilots better visualize weather data.  It is not intended as a substitute for an official pre-flight weather briefing.

01:49:19 UTC

LEZL METAR
Sevilla Airport
Sevilla, Spain
Current

19 mins ago

LEZL 180130Z AUTO 28007KT 9999 -RA ////// 14/13 Q1011 RERA
Observed
Nov-18 @ 01:30 UTC
Wind
  • 280° at 7 KTS
Visibility
10,000+ meters
Conditions
Light Rain
Temperature
14°C / 57°F
Dewpoint
13°C / 55°F
Humidity
94%
Altimeter
29.85" Hg
Pressure
1010.92 hPa
Previous

49 mins ago

LEZL 180100Z AUTO 32013KT 290V350 1800 RA BR FEW004 SCT009 OVC013 14/13 Q1011
Observed
Nov-18 @ 01:00 UTC
Wind
  • 320° at 13 KTS
Visibility
1,800 meters
Flight Rules
IFR
Conditions
Rain, Mist
Cloud Levels
  • Few at 400' AGL
  • Scattered at 900' AGL
  • Overcast at 1,300' AGL
Temperature
14°C / 57°F
Dewpoint
13°C / 55°F
Humidity
94%
Altimeter
29.85" Hg
Pressure
1010.92 hPa
Previous

1 hour ago

LEZL 180030Z AUTO 22002KT 8000 -RA SCT009 BKN014 BKN019 14/13 Q1012 RERA
Observed
Nov-18 @ 00:30 UTC
Wind
  • 220° at 2 KTS
Visibility
8,000 meters
Flight Rules
MVFR
Conditions
Light Rain
Cloud Levels
  • Scattered at 900' AGL
  • Broken at 1,400' AGL
  • Broken at 1,900' AGL
Temperature
14°C / 57°F
Dewpoint
13°C / 55°F
Humidity
94%
Altimeter
29.88" Hg
Pressure
1011.92 hPa